Historyczne dane pomiarowe

Dodano dane terminowe – wersja testowa.

Dane z okresu 1951-2019

Wersja bazy: 1.34 [2019-03-16, lista zmian], aktualizacja planowana na 2019-04-15

Dane meteo z obszaru Polski uzyskane na podstawie danych udostępnionych przez Instytut Meteorologii i Gospodarki Wodnej – Państwowy Instytut Badawczy.

 

Wybierz Datę:    

       

TemperaturaWilgotnośćWiatrCiśnienieOpadyŚniegCzas trwania zjawisk
 Stacja t tx tn tng RH VA  wxwx mslp ppp RRR   cm mm wxwxwxwxwxwxwx
1970-10-10 11.4 21.1 5.8 2.3 81.5- 2.7 0.0---- 0.0------------
1970-10-09 11.5 21.1 4.8 1.2 81.3- 3.0 0.3---- 0.0------------
1970-10-08 12.2 19.8 7.4 2.8 81.8- 0.0 2.0---- 0.0------------
1970-10-07 11.8 16.1 7.4 6.8 91.5- 4.0 2.0---- 0.0------------
1970-10-06 10.3 14.6 5.3 4.8 91.8- 7.7 0.0---- 0.5------------
1970-10-05 6.6 9.8 4.3 3.8 85.3- 7.3 0.0---- 9.0------------
1970-10-04 4.1 8.6 -0.3 -0.6 92.3- 8.0 0.0---- 4.6------------
1970-10-03 3.0 9.6 0.8 3.8 92.5- 4.3 0.0---- 1.2------------
1970-10-02 7.9 12.1 5.0 4.4 76.0- 7.7 0.0---- 2.8------------
1970-10-01 5.1 6.6 3.0 2.8 80.5- 8.0 0.0---- 5.6------------
1970-09-30 2.4 9.6 -2.8 -3.7 93.8- 2.0 0.0---- 3.3------------
1970-09-29 0.7 10.2 -4.2 -6.1 81.3- 0.0 0.0---- 0.0------------
1970-09-28 2.0 7.1 0.2 1.1 77.8- 3.3 0.0---- 0.0------------
1970-09-27 3.8 10.1 1.3 3.3 82.0- 5.0 1.0---- 0.0------------
1970-09-26 4.4 8.6 3.3 3.3 79.5- 8.0 0.0---- 0.3------------
1970-09-25 4.6 12.3 -3.3 -4.6 85.3- 8.0 0.0---- 2.3------------
1970-09-24 3.2 10.6 -0.8 -1.7 82.5- 3.0 0.0---- 0.0------------
1970-09-23 3.3 10.6 -0.7 -1.6 86.8- 2.3 1.0---- 2.2------------
1970-09-22 6.4 12.1 3.3 5.9 82.5- 4.3 3.3---- 2.4------------
1970-09-21 10.7 15.1 9.4 8.7 90.5- 7.0 0.7---- 2.4------------
1970-09-20 9.6 11.6 8.4 7.2 91.5- 8.0 0.0---- 2.5------------
1970-09-19 9.1 12.6 3.8 3.3 91.5- 8.0 0.0---- 0.0------------
1970-09-18 9.5 14.1 5.8 4.8 79.0- 6.0 0.0---- 1.6------------
1970-09-17 9.4 13.8 4.8 4.0 86.8- 8.0 0.3---- 2.4------------
1970-09-16 15.6 23.6 6.5 5.5 93.0- 3.0 1.3---- 1.8------------
1970-09-15 15.1 22.8 9.8 11.7 84.0- 2.7 0.0---- 0.0------------
1970-09-14 11.1 20.6 4.8 4.3 87.5- 0.0 0.0---- 0.0------------
1970-09-13 12.0 17.1 10.5 10.9 96.5- 6.3 0.0---- 5.8------------
1970-09-12 13.5 19.1 11.4 13.2 94.5- 5.3 0.0---- 4.7------------
1970-09-11 18.4 24.8 12.4 11.7 82.5- 0.3 1.3---- 0.0------------
1970-09-10 16.0 22.7 8.9 8.5 87.0- 3.3 0.7---- 0.0------------
1970-09-09 12.8 21.6 6.9 6.2 88.5- 4.0 0.0---- 0.0------------
1970-09-08 9.7 18.1 -0.3 -2.1 80.3- 3.7 1.7---- 0.0------------
1970-09-07 6.5 12.7 4.2 4.3 85.3- 3.7 0.3---- 0.2------------
1970-09-06 10.7 13.2 7.4 4.3 61.0- 3.3 3.0---- 3.3------------
1970-09-05 10.5 15.8 7.4 4.8 81.8- 5.0 0.0---- 5.6------------
1970-09-04 11.1 15.6 8.9 7.2 95.8- 7.0 0.0---- 8.3------------
1970-09-03 11.4 17.6 3.3 2.6 87.0- 8.0 0.0---- 0.7------------
1970-09-02 10.0 16.6 6.8 10.7 94.5- 4.7 0.0---- 0.0------------
1970-09-01 14.1 21.2 9.4 7.2 90.0- 5.3 0.0---- 0.0------------
1970-08-31 13.7 19.8 11.2 10.5 87.8- 4.7 0.0---- 0.0------------
1970-08-30 14.9 17.2 9.4 6.0 86.3- 6.7 0.0---- 1.3------------
1970-08-29 13.3 21.1 6.3 4.6 74.8- 0.3 1.3---- 0.7------------
1970-08-28 12.0 19.6 7.9 4.8 72.3- 2.0 0.0---- 0.0------------
1970-08-27 10.8 18.1 7.9 4.3 91.3- 1.7 1.0---- 0.0------------
1970-08-26 11.7 15.6 10.4 7.2 88.5- 4.3 0.0---- 0.0------------
1970-08-25 12.2 15.2 8.9 7.7 84.8- 6.7 1.0---- 0.4------------
1970-08-24 12.6 17.8 8.9 7.2 89.0- 5.3 0.0---- 0.5------------
1970-08-23 12.9 16.2 7.9 6.7 95.5- 7.3 0.7---- 14.5------------
1970-08-22 12.3 15.1 8.4 5.8100.0- 7.3 0.0---- 23.0------------
1970-08-21 13.9 22.1 7.4 5.3 84.0- 0.7 0.0---- 0.0------------
1970-08-20 13.2 21.6 7.4 4.8 87.3- 4.0 0.0---- 0.0------------
1970-08-19 11.6 19.6 5.3 3.3 86.8- 4.3 0.0---- 0.0------------
1970-08-18 10.2 17.1 7.8 9.5 92.0- 6.0 0.3---- 1.2------------
1970-08-17 16.2 21.8 11.9 10.7 90.0- 7.0 0.0---- 23.5------------
1970-08-16 15.4 19.6 13.9 12.2 91.8- 6.7 0.0---- 0.0------------
1970-08-15 16.8 23.6 7.9 5.3 78.0- 4.0 0.0---- 8.5------------
1970-08-14 12.0 22.1 4.8 2.3 89.3- 0.0 0.7---- 0.0------------
1970-08-13 14.1 20.1 9.4 5.8 54.3- 3.0 2.3---- 0.0------------
1970-08-12 11.3 15.1 9.2 10.2 75.8- 6.7 1.3---- 0.5------------
399.6 ms

 

Źródłem pochodzenia danych jest Instytut Meteorologii i Gospodarki Wodnej – Państwowy Instytut Badawczy. Dane Instytutu Meteorologii i Gospodarki Wodnej – Państwowego Instytutu Badawczego zostały przetworzone.

Dane źródłowe można odnaleźć na stronie https://dane.imgw.pl